Aeroporto :
LOGIN :

Iscrizione | Disclaimer

   EN    FR    IT 

 










Sommario :    VFR   VFR Marginale   IFR   IFR Intensivo   IFR Molto Intensivo
Visibilità : 
Base nubi : 
>= 8 km
>= 3000ft
5 / 8 km
1000 / 3000 ft
1500m / 5 km
500 / 1000 ft
800 / 1500m
200 / 500 ft
< 800m
< 200 ft
Simboli :   Temporali  Nebbia  Neve Forte  Precipitazioni Forti  Vento > 20 kt
SIGMETs :   Varie  Temporali  Ghiacco  Turbolenza  Onda orograficha  Ceneri Vulcaniche






- Altitudine del aeroporto : 2220 ft


LOXZ - Zeltweg AB

ULTIMO METAR :
  • 050550Z 24003KT 6000 RA SCT006ST BKN020ST OVC050SC 12/11 Q0999 TEMPO 4000 BKN009

METARs OBSOLETI :
  • 050520Z VRB02KT 6000 RA SCT006ST BKN020ST OVC050SC 11/11 Q0998 TEMPO 4000 BKN009
  • 050450Z VRB01KT 4000 RA FEW003ST BKN050SC 12/11 Q0998
  • 050350Z 08002KT 8000 -RA FEW003ST BKN050SC 12/11 Q0997

TAF TAF LOXZ
Valido dal 05 a 06 ore il 05 a 15 ore UTC


050515Z 0506/0515 VRB03KT 9999 -RA FEW007 SCT040 BKN060
TEMPO 0506/0511 3000 RA FEW003 SCT007 BKN020
BECMG 0512/0514 07008KT 9999 SCT060 SCT090



MetMap, La meteo Aeronautica in un colpo d'occhio ! - Copyright ORBIFLY Dicembre 2007 - Disclaimer

ORBIFLY MET'MAP TEAM :

Programmazione e sviluppo : Alexandra Zaïnal
Concezione : Baudouin d'Aumeries
Aiuto per la programmazione : Marc-Olivier Méhu
Supporto tecnico e logistico : Manuel Goepfert
Aiuto per la traduzione : Arnaldo La Scala

Contatto : metmap@orbifly.com




FONTI E CREDITI :

   NOAA